Time;durP1;ratioP1;P1;durP2;ratioP2;P2;SDS_P1;SDS_P2;PMS_P1;PMS_P2;Temp;Humidity;BMP_temperature;BMP_pressure;BME280_temperature;BME280_humidity;BME280_pressure;Samples;Min_cycle;Max_cycle;Signal;HPM_P1;HPM_P2
2023/02/07 00:00:43;;;;;;;10.70;9.10;;;0.00;1.00;;;;;;5095841;28;20177;-39
2023/02/07 00:03:09;;;;;;;14.23;9.17;;;-0.10;1.00;;;;;;5095989;28;20200;-37
2023/02/07 00:05:35;;;;;;;11.70;9.07;;;-0.10;1.00;;;;;;5096278;28;20443;-37
2023/02/07 00:08:04;;;;;;;12.60;10.87;;;-0.10;99.90;;;;;;5096600;28;20429;-37
2023/02/07 00:10:31;;;;;;;13.50;10.60;;;-0.10;99.90;;;;;;5096553;28;20423;-37
2023/02/07 00:12:56;;;;;;;12.80;10.50;;;-0.20;1.00;;;;;;5097097;28;20427;-36
2023/02/07 00:15:23;;;;;;;14.00;10.90;;;-0.20;99.90;;;;;;5096796;28;20415;-38
2023/02/07 00:17:49;;;;;;;14.00;10.33;;;-0.30;1.00;;;;;;5095145;28;20414;-37
2023/02/07 00:20:16;;;;;;;13.13;8.50;;;-0.40;99.90;;;;;;5095870;28;20512;-37
2023/02/07 00:22:42;;;;;;;10.50;9.07;;;-0.50;1.00;;;;;;5095306;28;20489;-36
2023/02/07 00:25:08;;;;;;;13.10;9.10;;;-0.60;1.00;;;;;;5096249;28;20470;-37
2023/02/07 00:27:34;;;;;;;11.63;9.70;;;-0.60;1.00;;;;;;5095556;28;20554;-37
2023/02/07 00:30:00;;;;;;;11.67;9.53;;;-0.80;99.90;;;;;;5093848;28;21028;-37
2023/02/07 00:32:30;;;;;;;13.67;8.87;;;-0.80;1.00;;;;;;5094996;28;20267;-37
2023/02/07 00:34:56;;;;;;;11.17;7.83;;;-0.90;1.00;;;;;;5096240;28;20420;-37
2023/02/07 00:37:22;;;;;;;12.40;8.90;;;-0.90;1.00;;;;;;5096033;28;20759;-38
2023/02/07 00:39:48;;;;;;;13.30;9.47;;;-1.00;1.00;;;;;;5096382;28;20263;-37
2023/02/07 00:42:13;;;;;;;14.27;9.13;;;-1.00;99.90;;;;;;5095811;28;20594;-36
2023/02/07 00:44:39;;;;;;;12.83;9.97;;;-1.00;99.90;;;;;;5096421;28;20172;-37
2023/02/07 00:47:04;;;;;;;10.20;8.30;;;-1.10;99.90;;;;;;5095477;28;20180;-37
2023/02/07 00:49:30;;;;;;;12.87;9.70;;;-1.10;99.90;;;;;;5095894;28;20185;-37
2023/02/07 00:51:56;;;;;;;11.30;9.03;;;-1.20;99.90;;;;;;5096711;28;20203;-37
2023/02/07 00:54:21;;;;;;;13.60;8.80;;;-1.20;1.00;;;;;;5096326;28;20255;-37
2023/02/07 00:56:47;;;;;;;11.23;8.60;;;-1.30;1.00;;;;;;5096165;28;20188;-37
2023/02/07 00:59:13;;;;;;;15.37;10.90;;;-1.20;1.00;;;;;;5096696;28;20239;-36
2023/02/07 01:01:38;;;;;;;15.40;11.80;;;-0.60;99.90;;;;;;5095681;28;20258;-37
2023/02/07 01:04:04;;;;;;;12.83;11.47;;;-0.50;95.80;;;;;;5096017;28;20180;-37
2023/02/07 01:06:32;;;;;;;17.67;12.23;;;-0.50;1.00;;;;;;5095951;28;20481;-37
2023/02/07 01:08:59;;;;;;;16.10;11.27;;;-0.50;1.00;;;;;;5095574;28;20418;-37
2023/02/07 01:11:25;;;;;;;13.70;10.67;;;-0.60;1.00;;;;;;5095964;28;20475;-37
2023/02/07 01:13:51;;;;;;;12.33;10.87;;;-0.80;99.90;;;;;;5095692;28;20425;-37
2023/02/07 01:16:26;;;;;;;15.63;11.03;;;-0.80;1.00;;;;;;5096373;28;20807;-37
2023/02/07 01:18:51;;;;;;;13.10;11.27;;;-0.90;1.00;;;;;;5094491;28;20262;-37
2023/02/07 01:21:23;;;;;;;16.53;12.23;;;-1.00;1.00;;;;;;5095731;28;20418;-37
2023/02/07 01:23:49;;;;;;;15.63;10.77;;;-1.00;1.00;;;;;;5096375;28;20744;-37
2023/02/07 01:26:14;;;;;;;18.97;12.63;;;-1.00;99.90;;;;;;5096751;28;20423;-36
2023/02/07 01:28:40;;;;;;;15.23;11.40;;;-1.00;54.60;;;;;;5096295;28;20415;-37
2023/02/07 01:31:11;;;;;;;12.20;10.90;;;-1.00;1.00;;;;;;5096697;28;20255;-37
2023/02/07 01:33:37;;;;;;;15.10;11.80;;;-1.20;99.90;;;;;;5096674;28;20414;-38
2023/02/07 01:36:21;;;;;;;17.20;12.37;;;-1.30;1.00;;;;;;5096650;28;20472;-37
2023/02/07 01:38:46;;;;;;;16.03;11.17;;;-1.40;99.90;;;;;;5096338;28;20677;-37
2023/02/07 01:41:12;;;;;;;17.33;12.10;;;-1.50;1.00;;;;;;5096271;28;20429;-37
2023/02/07 01:44:00;;;;;;;13.70;11.30;;;-1.50;1.00;;;;;;5096459;28;20207;-36
2023/02/07 01:46:27;;;;;;;16.00;12.47;;;-1.60;99.90;;;;;;5095013;28;20779;-37
2023/02/07 01:48:54;;;;;;;15.17;12.27;;;-1.60;99.90;;;;;;5096841;28;20520;-36
2023/02/07 01:51:20;;;;;;;14.80;11.30;;;-1.60;99.90;;;;;;5098059;28;20418;-37
2023/02/07 01:53:46;;;;;;;13.70;12.10;;;-1.60;99.90;;;;;;5097612;28;20473;-37
2023/02/07 01:56:13;;;;;;;13.17;11.07;;;-1.60;99.90;;;;;;5097651;28;20415;-37
2023/02/07 01:58:40;;;;;;;18.07;12.47;;;-1.60;1.00;;;;;;5096537;28;20259;-37
2023/02/07 02:01:14;;;;;;;16.33;12.10;;;-1.60;1.00;;;;;;5095011;28;20843;-36
2023/02/07 02:03:43;;;;;;;17.20;12.90;;;-1.50;1.00;;;;;;5095212;28;20747;-38
2023/02/07 02:06:10;;;;;;;19.33;13.73;;;-1.50;1.00;;;;;;5095829;28;20446;-37
2023/02/07 02:08:35;;;;;;;24.77;12.97;;;-1.50;1.00;;;;;;5098618;28;20429;-37
2023/02/07 02:11:13;;;;;;;17.87;12.10;;;-1.50;1.00;;;;;;5098755;28;20434;-37
2023/02/07 02:13:51;;;;;;;15.20;12.07;;;-1.50;1.00;;;;;;5098844;28;20589;-38
2023/02/07 02:16:40;;;;;;;16.23;11.83;;;-1.40;1.00;;;;;;5099027;28;20479;-36
2023/02/07 02:19:14;;;;;;;16.40;11.60;;;-1.40;1.00;;;;;;5092573;28;20483;-37
2023/02/07 02:21:43;;;;;;;17.47;12.30;;;-1.30;1.00;;;;;;5100081;28;20815;-38
2023/02/07 02:24:36;;;;;;;15.40;11.53;;;-1.30;99.90;;;;;;5098852;28;20473;-37
2023/02/07 02:27:01;;;;;;;15.53;12.40;;;-1.30;99.90;;;;;;5100336;28;20824;-37
2023/02/07 02:29:47;;;;;;;19.20;11.83;;;-1.30;56.70;;;;;;5099396;28;20433;-38
2023/02/07 02:32:18;;;;;;;18.60;13.17;;;-1.30;1.00;;;;;;5098519;28;20277;-37
2023/02/07 02:34:55;;;;;;;16.80;13.47;;;-1.30;99.90;;;;;;5097433;28;20432;-36
2023/02/07 02:37:48;;;;;;;16.70;13.20;;;-1.40;99.90;;;;;;5097408;28;20406;-37
2023/02/07 02:40:39;;;;;;;19.10;14.53;;;-1.40;1.00;;;;;;5098032;28;20576;-37
2023/02/07 02:43:34;;;;;;;18.70;13.60;;;-1.50;1.00;;;;;;5097075;28;20446;-38
2023/02/07 02:46:13;;;;;;;16.77;13.90;;;-1.60;1.00;;;;;;5097783;28;20418;-37
2023/02/07 02:48:40;;;;;;;16.80;13.87;;;-1.60;99.90;;;;;;5098536;28;20426;-37
2023/02/07 02:51:06;;;;;;;19.90;14.30;;;-1.70;1.00;;;;;;5099495;28;20536;-37
2023/02/07 02:53:31;;;;;;;17.67;14.27;;;-1.80;1.00;;;;;;5098798;28;20556;-37
2023/02/07 02:56:48;;;;;;;17.67;13.60;;;-1.80;99.90;;;;;;5099812;28;20191;-36
2023/02/07 02:59:24;;;;;;;17.37;14.00;;;-1.90;1.00;;;;;;5075194;28;20196;-36
2023/02/07 03:02:27;;;;;;;22.63;15.07;;;-1.90;38.40;;;;;;5098321;28;20398;-36
2023/02/07 03:05:19;;;;;;;21.20;13.83;;;-1.90;1.00;;;;;;5098058;28;20429;-36
2023/02/07 03:08:04;;;;;;;23.20;14.70;;;-1.90;99.90;;;;;;5096702;28;20537;-36
2023/02/07 03:10:56;;;;;;;16.57;13.67;;;-2.10;1.00;;;;;;5097904;28;20423;-36
2023/02/07 03:13:30;;;;;;;19.40;14.63;;;-2.10;1.00;;;;;;5098908;28;20473;-37
2023/02/07 03:16:17;;;;;;;17.60;13.83;;;-2.10;99.90;;;;;;5097590;28;20446;-37
2023/02/07 03:18:51;;;;;;;18.80;15.53;;;-2.10;99.90;;;;;;5098369;28;20438;-37
2023/02/07 03:21:33;;;;;;;16.80;15.00;;;-2.10;3.80;;;;;;5097241;28;20436;-37
2023/02/07 03:24:03;;;;;;;16.13;13.63;;;-2.10;1.00;;;;;;5096687;28;20553;-37
2023/02/07 03:26:29;;;;;;;19.70;14.97;;;-2.10;65.60;;;;;;5097464;28;20513;-37
2023/02/07 03:28:56;;;;;;;19.40;13.30;;;-2.20;99.90;;;;;;5097197;28;20426;-37
2023/02/07 03:31:23;;;;;;;17.10;14.50;;;-2.20;99.90;;;;;;5098359;28;20780;-37
2023/02/07 03:33:53;;;;;;;19.37;15.37;;;-2.30;1.00;;;;;;5098087;28;20462;-37
2023/02/07 03:36:33;;;;;;;19.90;15.33;;;-2.30;1.00;;;;;;5079871;28;20579;-36
2023/02/07 03:38:58;;;;;;;22.23;16.43;;;-2.30;1.00;;;;;;5096547;28;20703;-36
2023/02/07 03:41:34;;;;;;;23.63;16.07;;;-2.30;99.90;;;;;;5096864;28;20450;-36
2023/02/07 03:44:05;;;;;;;19.97;14.83;;;-2.40;1.00;;;;;;5097127;28;20430;-37
2023/02/07 03:46:35;;;;;;;24.07;17.40;;;-2.40;1.00;;;;;;5097699;28;20539;-36
2023/02/07 03:49:01;;;;;;;18.20;15.63;;;-2.50;42.20;;;;;;5098148;28;20536;-37
2023/02/07 03:51:26;;;;;;;20.10;16.03;;;-2.40;24.30;;;;;;5097061;28;20502;-37
2023/02/07 03:53:52;;;;;;;21.27;16.27;;;-2.50;1.00;;;;;;5096935;28;20260;-37
2023/02/07 03:56:26;;;;;;;19.07;15.23;;;-2.50;99.90;;;;;;5097852;28;20180;-37
2023/02/07 03:58:51;;;;;;;20.90;15.90;;;-2.50;99.90;;;;;;5097866;28;20184;-37
2023/02/07 04:01:17;;;;;;;22.40;18.80;;;-2.50;99.90;;;;;;5095759;28;20658;-37
2023/02/07 04:03:43;;;;;;;20.70;16.83;;;-2.50;99.40;;;;;;5097263;28;20181;-36
2023/02/07 04:06:08;;;;;;;21.80;16.50;;;-2.50;99.90;;;;;;5096034;28;20192;-36
2023/02/07 04:08:34;;;;;;;24.10;17.80;;;-2.50;99.90;;;;;;5096032;28;20176;-36
2023/02/07 04:11:01;;;;;;;22.60;18.77;;;-2.50;99.90;;;;;;5096201;28;20199;-37
2023/02/07 04:13:30;;;;;;;21.43;18.27;;;-2.50;99.90;;;;;;5095678;28;20212;-37
2023/02/07 04:15:55;;;;;;;22.93;18.47;;;-2.50;99.90;;;;;;5094947;28;20445;-37
2023/02/07 04:18:50;;;;;;;24.30;18.80;;;-2.50;99.90;;;;;;5095451;28;20411;-36
2023/02/07 04:21:16;;;;;;;23.77;18.97;;;-2.50;99.90;;;;;;5095521;28;20344;-37
2023/02/07 04:23:42;;;;;;;20.90;17.80;;;-2.60;99.90;;;;;;5095975;28;20565;-37
2023/02/07 04:26:07;;;;;;;22.93;19.70;;;-2.50;99.90;;;;;;5095268;28;20192;-37
2023/02/07 04:28:33;;;;;;;23.47;18.93;;;-2.50;1.00;;;;;;5095400;28;20172;-37
2023/02/07 04:30:58;;;;;;;26.40;18.23;;;-2.50;1.00;;;;;;5095583;28;20212;-36
2023/02/07 04:33:24;;;;;;;23.30;19.93;;;-2.50;1.00;;;;;;5094793;28;20239;-37
2023/02/07 04:35:54;;;;;;;24.90;20.50;;;-2.50;1.00;;;;;;5096706;28;20211;-37
2023/02/07 04:38:20;;;;;;;25.93;21.20;;;-2.60;1.00;;;;;;5096185;28;20180;-37
2023/02/07 04:40:46;;;;;;;25.17;19.43;;;-2.60;90.70;;;;;;5095574;28;20466;-37
2023/02/07 04:43:11;;;;;;;24.83;19.07;;;-2.50;99.90;;;;;;5095695;28;20524;-37
2023/02/07 04:45:37;;;;;;;24.60;19.10;;;-2.50;1.00;;;;;;5096005;28;20263;-38
2023/02/07 04:48:03;;;;;;;23.53;18.70;;;-2.60;1.00;;;;;;5095187;28;20531;-37
2023/02/07 04:50:28;;;;;;;23.10;19.93;;;-2.50;1.00;;;;;;5097267;28;20188;-37
2023/02/07 04:52:54;;;;;;;24.67;20.07;;;-2.50;1.00;;;;;;5096683;28;20469;-38
2023/02/07 04:55:21;;;;;;;23.10;18.47;;;-2.50;1.00;;;;;;5097125;28;20177;-37
2023/02/07 04:57:47;;;;;;;22.57;18.53;;;-2.60;99.90;;;;;;5095420;28;20324;-38
2023/02/07 05:00:13;;;;;;;26.30;18.70;;;-2.50;99.90;;;;;;5096734;28;20734;-37
2023/02/07 05:02:39;;;;;;;23.30;18.10;;;-2.50;99.90;;;;;;5097102;28;20605;-37
2023/02/07 05:05:05;;;;;;;24.20;18.83;;;-2.60;99.90;;;;;;5097053;28;20863;-37
2023/02/07 05:07:30;;;;;;;24.73;17.40;;;-2.70;99.90;;;;;;5094995;28;20554;-37
2023/02/07 05:09:56;;;;;;;22.00;17.73;;;-2.70;1.00;;;;;;5094931;28;20461;-38
2023/02/07 05:12:22;;;;;;;22.60;18.03;;;-2.60;1.00;;;;;;5095896;28;20260;-36
2023/02/07 05:14:47;;;;;;;25.13;19.57;;;-2.60;1.00;;;;;;5096717;28;20176;-37
2023/02/07 05:17:13;;;;;;;22.07;18.87;;;-2.60;99.90;;;;;;5096637;28;20242;-37
2023/02/07 05:19:39;;;;;;;23.83;18.80;;;-2.60;99.90;;;;;;5095305;28;20169;-37
2023/02/07 05:22:04;;;;;;;21.13;17.33;;;-2.60;99.90;;;;;;5094739;28;20184;-37
2023/02/07 05:24:30;;;;;;;22.70;17.70;;;-2.60;99.90;;;;;;5095119;28;20767;-37
2023/02/07 05:26:56;;;;;;;25.10;19.03;;;-2.60;36.90;;;;;;5095480;28;20221;-37
2023/02/07 05:29:21;;;;;;;22.40;18.57;;;-2.70;99.90;;;;;;5095429;28;20180;-37
2023/02/07 05:34:31;;;;;;;23.83;20.90;;;-2.70;99.90;;;;;;5095231;28;20195;-37
2023/02/07 05:36:57;;;;;;;22.33;18.33;;;-2.70;99.90;;;;;;5095790;28;20422;-37
2023/02/07 05:39:23;;;;;;;21.00;16.80;;;-2.70;99.90;;;;;;5096099;28;20191;-37
2023/02/07 05:41:48;;;;;;;20.80;18.17;;;-2.80;99.90;;;;;;5097992;28;20168;-38
2023/02/07 05:44:14;;;;;;;24.97;19.90;;;-2.80;99.90;;;;;;5099017;28;20443;-37
2023/02/07 05:46:39;;;;;;;19.90;16.17;;;-2.80;99.90;;;;;;5099670;28;20175;-37
2023/02/07 05:49:05;;;;;;;25.90;19.83;;;-2.90;99.90;;;;;;5099199;28;20272;-37
2023/02/07 05:51:31;;;;;;;25.27;18.30;;;-2.90;99.90;;;;;;5098601;28;20176;-37
2023/02/07 05:53:56;;;;;;;22.73;18.13;;;-2.90;99.90;;;;;;5096770;28;20303;-38
2023/02/07 05:56:22;;;;;;;22.07;17.13;;;-3.00;99.90;;;;;;5097863;28;20180;-37
2023/02/07 05:58:47;;;;;;;22.97;18.67;;;-3.00;99.90;;;;;;5097833;28;20538;-37
2023/02/07 06:01:13;;;;;;;19.70;17.40;;;-3.00;99.90;;;;;;5094105;28;20421;-37
2023/02/07 06:03:39;;;;;;;21.33;16.60;;;-3.00;99.90;;;;;;5092740;28;20322;-38
2023/02/07 06:06:05;;;;;;;21.90;17.77;;;-3.10;99.90;;;;;;5094936;28;20185;-37
2023/02/07 06:08:30;;;;;;;25.17;18.10;;;-3.10;1.00;;;;;;5095260;28;20237;-38
2023/02/07 06:10:56;;;;;;;20.33;16.77;;;-3.20;1.00;;;;;;5094214;28;20418;-37
2023/02/07 06:13:22;;;;;;;23.07;17.77;;;-3.10;7.80;;;;;;5094431;28;20208;-36
2023/02/07 06:15:47;;;;;;;27.13;18.20;;;-3.10;1.00;;;;;;5096179;28;20459;-37
2023/02/07 06:18:13;;;;;;;20.03;17.77;;;-3.10;1.00;;;;;;5093725;28;20265;-37
2023/02/07 06:20:39;;;;;;;23.33;17.53;;;-3.20;1.00;;;;;;5091859;28;20476;-37
2023/02/07 06:23:04;;;;;;;22.27;17.57;;;-3.20;1.00;;;;;;5091703;28;20181;-37
2023/02/07 06:25:30;;;;;;;22.87;18.30;;;-3.20;99.90;;;;;;5090121;28;20511;-37
2023/02/07 06:27:56;;;;;;;24.10;18.20;;;-3.20;99.90;;;;;;5091748;28;20444;-37
2023/02/07 06:30:21;;;;;;;21.07;17.27;;;-3.10;93.50;;;;;;5092056;28;20185;-37
2023/02/07 06:32:47;;;;;;;24.60;17.90;;;-3.20;32.50;;;;;;5092313;28;20651;-37
2023/02/07 06:35:13;;;;;;;23.50;18.30;;;-3.20;99.90;;;;;;5090277;28;20412;-38
2023/02/07 06:37:39;;;;;;;25.13;17.50;;;-3.20;99.90;;;;;;5092254;28;20177;-37
2023/02/07 06:40:05;;;;;;;21.73;17.27;;;-3.30;99.90;;;;;;5093597;28;20192;-37
2023/02/07 06:42:31;;;;;;;22.60;17.37;;;-3.30;99.90;;;;;;5093834;28;20200;-37
2023/02/07 06:44:56;;;;;;;22.70;17.33;;;-3.30;1.00;;;;;;5093687;28;20765;-37
2023/02/07 06:47:22;;;;;;;19.90;16.80;;;-3.30;1.00;;;;;;5095222;28;20535;-38
2023/02/07 06:49:47;;;;;;;20.40;16.10;;;-3.30;1.00;;;;;;5093722;28;20187;-37
2023/02/07 06:52:13;;;;;;;20.87;16.53;;;-3.30;1.00;;;;;;5093222;28;20564;-38
2023/02/07 06:54:39;;;;;;;20.97;16.50;;;-3.20;1.00;;;;;;5094655;28;20208;-37
2023/02/07 06:57:05;;;;;;;22.50;16.33;;;-3.30;99.90;;;;;;5094219;28;20484;-37
2023/02/07 06:59:31;;;;;;;22.60;15.57;;;-3.30;99.90;;;;;;5096426;28;20176;-37
2023/02/07 07:01:59;;;;;;;20.97;16.03;;;-3.20;99.90;;;;;;5095175;28;20431;-37
2023/02/07 07:04:25;;;;;;;19.80;16.10;;;-3.20;99.90;;;;;;5092555;28;20491;-38
2023/02/07 07:06:51;;;;;;;26.50;17.30;;;-3.30;16.00;;;;;;5094134;28;20407;-37
2023/02/07 07:09:17;;;;;;;20.23;15.97;;;-3.20;1.00;;;;;;5093989;28;20688;-37
2023/02/07 07:11:43;;;;;;;19.20;15.20;;;-3.20;1.00;;;;;;5094885;28;20230;-37
2023/02/07 07:14:10;;;;;;;23.10;16.40;;;-3.20;99.90;;;;;;5093156;28;20176;-37
2023/02/07 07:16:36;;;;;;;22.03;16.27;;;-3.10;99.90;;;;;;5103898;28;20438;-37
2023/02/07 07:19:01;;;;;;;23.03;15.80;;;-3.10;99.90;;;;;;5103210;28;20464;-39
2023/02/07 07:21:27;;;;;;;19.40;16.63;;;-3.00;1.00;;;;;;5095117;28;20564;-37
2023/02/07 07:23:53;;;;;;;17.90;15.80;;;-2.80;1.00;;;;;;5096129;28;20540;-37
2023/02/07 07:26:19;;;;;;;20.27;16.60;;;-2.70;99.90;;;;;;5094963;28;20259;-37
2023/02/07 07:28:45;;;;;;;19.03;15.50;;;-2.60;10.10;;;;;;5095948;28;20565;-38
2023/02/07 07:31:10;;;;;;;21.80;16.83;;;-2.40;1.00;;;;;;5092397;28;20562;-38
2023/02/07 07:33:36;;;;;;;20.80;16.00;;;-2.20;99.90;;;;;;5092065;28;20214;-38
2023/02/07 07:36:02;;;;;;;19.30;16.40;;;-2.10;37.40;;;;;;5093603;28;20483;-38
2023/02/07 07:38:28;;;;;;;23.53;17.43;;;-1.90;1.00;;;;;;5095282;28;20576;-37
2023/02/07 07:40:54;;;;;;;22.87;17.40;;;-1.60;99.90;;;;;;5095740;28;20509;-38
2023/02/07 07:43:19;;;;;;;21.97;17.33;;;-1.60;99.90;;;;;;5096516;28;20410;-37
2023/02/07 07:45:50;;;;;;;19.50;17.10;;;-1.50;99.90;;;;;;5097844;28;20211;-36
2023/02/07 07:48:16;;;;;;;19.07;16.50;;;-1.30;99.90;;;;;;5096791;28;20175;-36
2023/02/07 07:50:42;;;;;;;22.23;17.13;;;-1.10;99.90;;;;;;5096120;28;20434;-38
2023/02/07 07:53:07;;;;;;;24.30;17.90;;;-0.90;12.40;;;;;;5094585;28;20501;-37
2023/02/07 07:55:33;;;;;;;18.37;16.40;;;-0.70;1.00;;;;;;5094369;28;20543;-38
2023/02/07 07:57:59;;;;;;;22.17;16.30;;;-0.40;99.90;;;;;;5094759;28;20180;-37
2023/02/07 08:00:24;;;;;;;17.50;15.37;;;-0.20;99.90;;;;;;5093844;28;20495;-37
2023/02/07 08:02:50;;;;;;;18.40;15.50;;;0.00;22.30;;;;;;5094215;28;20188;-37
2023/02/07 08:05:16;;;;;;;17.90;14.90;;;0.30;1.00;;;;;;5091539;28;20509;-37
2023/02/07 08:07:41;;;;;;;19.27;16.17;;;0.50;1.00;;;;;;5095642;28;20263;-37
2023/02/07 08:10:07;;;;;;;19.70;16.00;;;0.70;99.90;;;;;;5093362;28;20210;-38
2023/02/07 08:12:33;;;;;;;18.13;16.20;;;0.90;99.90;;;;;;5092258;28;20664;-36
2023/02/07 08:14:58;;;;;;;19.47;15.40;;;1.10;99.90;;;;;;5093893;28;20437;-37
2023/02/07 08:17:24;;;;;;;17.27;13.97;;;1.40;99.90;;;;;;5093968;28;20339;-37
2023/02/07 08:19:50;;;;;;;12.03;7.73;;;1.60;1.00;;;;;;5096383;28;20208;-36
2023/02/07 08:22:15;;;;;;;36.70;26.07;;;4.00;1.00;;;;;;5095253;28;20242;-36
2023/02/07 08:24:41;;;;;;;23.30;20.83;;;6.50;1.00;;;;;;5094270;28;20223;-39
2023/02/07 08:27:07;;;;;;;17.80;16.00;;;6.70;1.00;;;;;;5090140;28;20586;-38
2023/02/07 08:29:33;;;;;;;16.10;14.40;;;6.40;1.00;;;;;;5093721;28;20183;-38
2023/02/07 08:31:58;;;;;;;16.10;14.40;;;6.10;1.00;;;;;;5075316;28;20411;-38
2023/02/07 08:34:27;;;;;;;16.77;15.10;;;5.90;99.90;;;;;;5093371;28;20443;-39
2023/02/07 08:36:53;;;;;;;16.07;13.70;;;5.80;22.40;;;;;;5092227;28;20279;-38
2023/02/07 08:39:19;;;;;;;16.87;14.50;;;5.40;1.00;;;;;;5095018;28;20690;-39
2023/02/07 08:41:44;;;;;;;13.10;11.90;;;5.20;1.00;;;;;;5093856;28;20531;-37
2023/02/07 08:44:10;;;;;;;15.20;13.20;;;5.10;1.00;;;;;;5095045;28;20949;-39
2023/02/07 08:46:36;;;;;;;14.23;12.93;;;5.10;1.00;;;;;;5093419;28;20226;-41
2023/02/07 08:49:02;;;;;;;13.87;12.47;;;5.00;1.00;;;;;;5093868;28;20301;-37
2023/02/07 08:51:30;;;;;;;15.40;13.80;;;5.00;1.00;;;;;;5098631;28;20188;-38
2023/02/07 08:53:56;;;;;;;16.63;14.90;;;4.90;1.00;;;;;;5092823;28;20466;-38
2023/02/07 08:56:22;;;;;;;16.20;14.60;;;5.10;1.00;;;;;;5092166;28;20441;-39
2023/02/07 08:58:47;;;;;;;16.07;14.37;;;5.00;1.00;;;;;;5091557;28;20524;-38
2023/02/07 09:01:13;;;;;;;14.37;12.93;;;4.80;1.00;;;;;;5091292;28;20231;-38
2023/02/07 09:03:39;;;;;;;19.13;13.63;;;4.90;1.00;;;;;;5093134;28;20177;-38
2023/02/07 09:06:05;;;;;;;13.77;12.37;;;5.10;1.00;;;;;;5090467;28;20176;-40
2023/02/07 09:08:31;;;;;;;15.03;13.57;;;5.30;1.00;;;;;;5091444;28;20407;-38
2023/02/07 09:10:57;;;;;;;15.20;13.60;;;5.50;1.00;;;;;;5088654;28;20728;-39
2023/02/07 09:13:22;;;;;;;15.47;13.87;;;5.80;1.00;;;;;;5090310;28;20550;-39
2023/02/07 09:15:58;;;;;;;14.83;13.33;;;6.10;1.00;;;;;;5090608;28;20172;-38
2023/02/07 09:18:24;;;;;;;15.67;13.97;;;6.50;1.00;;;;;;5090762;28;20501;-39
2023/02/07 09:20:50;;;;;;;16.40;14.50;;;6.60;1.00;;;;;;5076970;28;20574;-40
2023/02/07 09:23:19;;;;;;;16.67;14.73;;;6.80;1.00;;;;;;5072976;28;20975;-38
2023/02/07 09:25:49;;;;;;;16.00;14.10;;;7.00;1.00;;;;;;5072461;28;20699;-39
2023/02/07 09:28:16;;;;;;;15.97;14.20;;;7.40;1.00;;;;;;5074851;28;20416;-38
2023/02/07 09:30:43;;;;;;;17.50;14.90;;;7.90;1.00;;;;;;5074773;28;20423;-38
2023/02/07 09:33:10;;;;;;;15.93;13.60;;;8.20;1.00;;;;;;5071142;28;20530;-38
2023/02/07 09:35:40;;;;;;;15.07;13.47;;;8.80;1.00;;;;;;5073203;28;20414;-40
2023/02/07 09:38:07;;;;;;;15.13;13.63;;;9.40;1.00;;;;;;5057858;28;20826;-38
2023/02/07 09:40:33;;;;;;;16.33;14.93;;;10.20;1.00;;;;;;5074706;28;20454;-38
2023/02/07 09:43:08;;;;;;;15.97;14.33;;;11.30;1.00;;;;;;5072663;28;20416;-39
2023/02/07 09:45:38;;;;;;;15.03;13.47;;;12.30;1.00;;;;;;5074080;28;20503;-39
2023/02/07 09:48:11;;;;;;;14.50;13.00;;;12.60;1.00;;;;;;5071744;28;20632;-38
2023/02/07 09:50:43;;;;;;;13.70;12.30;;;13.60;1.00;;;;;;5073252;28;20458;-39
2023/02/07 09:53:22;;;;;;;16.30;14.40;;;14.60;1.00;;;;;;5071758;28;20463;-38
2023/02/07 09:55:57;;;;;;;14.40;12.90;;;15.10;1.00;;;;;;5073214;28;20415;-38
2023/02/07 09:58:44;;;;;;;14.30;13.10;;;16.00;1.00;;;;;;5074321;28;20840;-41
2023/02/07 10:01:14;;;;;;;14.47;12.87;;;16.80;1.00;;;;;;5072136;28;20479;-39
2023/02/07 10:04:22;;;;;;;14.53;13.10;;;17.40;1.00;;;;;;5072379;28;20451;-41
2023/02/07 10:06:51;;;;;;;14.30;13.07;;;17.60;1.00;;;;;;5051443;28;20904;-41
2023/02/07 10:09:20;;;;;;;14.23;13.03;;;18.10;1.00;;;;;;5072964;28;20434;-38
2023/02/07 10:12:04;;;;;;;13.87;12.53;;;18.40;1.00;;;;;;5071200;28;20515;-40
2023/02/07 10:14:49;;;;;;;13.60;12.50;;;18.50;1.00;;;;;;5074454;28;20536;-39
2023/02/07 10:17:42;;;;;;;14.87;13.67;;;18.10;1.00;;;;;;5074364;28;20901;-39
2023/02/07 10:20:28;;;;;;;12.53;11.27;;;17.70;1.00;;;;;;5073156;28;20418;-40
2023/02/07 10:23:00;;;;;;;13.40;12.20;;;17.00;1.00;;;;;;5071283;28;20411;-40
2023/02/07 10:25:47;;;;;;;12.27;11.17;;;17.50;1.00;;;;;;5074264;28;20501;-41
2023/02/07 10:28:12;;;;;;;14.97;13.57;;;18.00;1.00;;;;;;5074067;28;20832;-40
2023/02/07 10:30:45;;;;;;;14.20;12.87;;;17.80;1.00;;;;;;5078141;28;20617;-41
2023/02/07 10:33:17;;;;;;;13.90;11.87;;;16.80;1.00;;;;;;5075336;28;20460;-40
2023/02/07 10:35:44;;;;;;;12.10;10.80;;;16.80;1.00;;;;;;5072827;28;20902;-41
2023/02/07 10:38:53;;;;;;;11.07;10.03;;;17.30;1.00;;;;;;5075248;28;20418;-42
2023/02/07 10:41:34;;;;;;;10.97;9.87;;;17.80;1.00;;;;;;5076613;28;20415;-44
2023/02/07 10:44:00;;;;;;;9.83;8.93;;;18.70;1.00;;;;;;5076539;28;20423;-40
2023/02/07 10:46:26;;;;;;;10.63;9.63;;;19.70;1.00;;;;;;5075641;28;20422;-41
2023/02/07 10:48:51;;;;;;;11.37;9.53;;;20.80;1.00;;;;;;5075052;28;20187;-41
2023/02/07 10:51:20;;;;;;;8.80;7.90;;;22.00;1.00;;;;;;5073302;28;20845;-41
2023/02/07 10:54:00;;;;;;;11.00;8.70;;;23.10;1.00;;;;;;5074323;28;20240;-42
2023/02/07 10:56:27;;;;;;;11.83;9.00;;;24.10;1.00;;;;;;5071085;28;20823;-39
2023/02/07 10:58:55;;;;;;;8.90;7.83;;;24.90;1.00;;;;;;5074200;28;20427;-43
2023/02/07 11:01:24;;;;;;;8.20;7.50;;;25.60;1.00;;;;;;5073733;28;20421;-42
2023/02/07 11:03:51;;;;;;;10.83;9.77;;;26.40;1.00;;;;;;5074689;28;20467;-39
2023/02/07 11:06:32;;;;;;;9.27;8.23;;;27.20;1.00;;;;;;5072908;28;20746;-40
2023/02/07 11:09:24;;;;;;;16.50;9.10;;;28.00;1.00;;;;;;5072942;28;20661;-41
2023/02/07 11:11:51;;;;;;;8.37;7.77;;;28.90;1.00;;;;;;5053392;28;20441;-40
2023/02/07 11:14:25;;;;;;;9.07;8.33;;;29.30;1.00;;;;;;5074742;28;20648;-41
2023/02/07 11:17:00;;;;;;;9.00;8.20;;;30.20;1.00;;;;;;5073512;28;20781;-41
2023/02/07 11:19:27;;;;;;;7.27;6.70;;;30.60;1.00;;;;;;5073523;28;20401;-42
2023/02/07 11:22:06;;;;;;;7.83;7.23;;;31.20;1.00;;;;;;5075723;28;20423;-41
2023/02/07 11:24:34;;;;;;;8.40;7.60;;;32.20;1.00;;;;;;5075932;28;20520;-42
2023/02/07 11:27:01;;;;;;;9.53;8.73;;;32.50;1.00;;;;;;5075915;28;20390;-40
2023/02/07 11:29:29;;;;;;;8.50;7.90;;;32.30;1.00;;;;;;5076005;28;20427;-41
2023/02/07 11:31:58;;;;;;;8.60;7.90;;;32.30;1.00;;;;;;5075657;28;20427;-43
2023/02/07 11:34:36;;;;;;;9.40;8.60;;;32.70;1.00;;;;;;5076171;28;20423;-40
2023/02/07 11:37:22;;;;;;;8.93;8.33;;;33.20;1.00;;;;;;5074982;28;20411;-43
2023/02/07 11:39:49;;;;;;;8.37;7.77;;;33.00;1.00;;;;;;5073402;28;20423;-41
2023/02/07 11:42:20;;;;;;;8.37;7.77;;;33.70;1.00;;;;;;5073453;28;20549;-41
2023/02/07 11:44:47;;;;;;;9.80;9.10;;;33.40;1.00;;;;;;5074525;28;20473;-41
2023/02/07 11:47:22;;;;;;;8.63;7.93;;;33.40;1.00;;;;;;5071254;28;20745;-42
2023/02/07 11:49:57;;;;;;;10.23;9.43;;;33.50;1.00;;;;;;5073768;28;20419;-41
2023/02/07 11:52:23;;;;;;;9.33;8.60;;;33.90;1.00;;;;;;5074091;28;20427;-41
2023/02/07 11:54:52;;;;;;;8.43;7.83;;;33.80;1.00;;;;;;5073494;28;20423;-41
2023/02/07 11:57:19;;;;;;;7.87;7.20;;;33.80;1.00;;;;;;5074132;28;20431;-44
2023/02/07 12:00:24;;;;;;;6.83;6.23;;;34.00;1.00;;;;;;5071989;28;20492;-41
2023/02/07 12:03:15;;;;;;;8.37;7.43;;;34.50;1.00;;;;;;5071332;28;21007;-42
2023/02/07 12:05:44;;;;;;;7.17;6.67;;;35.20;1.00;;;;;;5069473;28;20485;-41
2023/02/07 12:08:21;;;;;;;7.07;6.20;;;35.50;1.00;;;;;;5070620;28;20613;-41
2023/02/07 12:10:54;;;;;;;6.67;6.17;;;35.70;1.00;;;;;;5069008;28;20426;-41
2023/02/07 12:13:51;;;;;;;7.30;6.70;;;35.70;1.00;;;;;;5071298;28;20427;-44
2023/02/07 12:16:31;;;;;;;6.40;5.90;;;36.00;1.00;;;;;;5084280;28;20511;-41
2023/02/07 12:19:12;;;;;;;6.87;6.30;;;36.10;1.00;;;;;;5093735;28;20429;-41
2023/02/07 12:21:55;;;;;;;6.57;5.97;;;36.20;1.00;;;;;;5095286;28;20556;-42
2023/02/07 12:24:28;;;;;;;6.53;5.93;;;36.10;1.00;;;;;;5095223;28;20472;-42
2023/02/07 12:27:13;;;;;;;7.87;6.00;;;36.20;1.00;;;;;;5093423;28;20479;-41
2023/02/07 12:29:51;;;;;;;6.73;6.23;;;36.00;1.00;;;;;;5095771;28;20820;-43
2023/02/07 12:32:41;;;;;;;5.97;5.47;;;36.00;1.00;;;;;;5090159;28;20475;-42
2023/02/07 12:35:25;;;;;;;5.10;4.80;;;36.30;1.00;;;;;;5091695;28;20786;-41
2023/02/07 12:38:14;;;;;;;5.60;5.10;;;36.40;1.00;;;;;;5092147;28;20410;-41
2023/02/07 12:40:48;;;;;;;5.50;5.00;;;36.50;1.00;;;;;;5093698;28;20430;-40
2023/02/07 12:43:24;;;;;;;5.13;4.63;;;36.60;1.00;;;;;;5090744;28;20462;-41
2023/02/07 12:46:02;;;;;;;6.03;5.53;;;36.70;1.00;;;;;;5090276;28;20426;-41
2023/02/07 12:48:49;;;;;;;5.90;5.40;;;36.50;1.00;;;;;;5092753;28;20410;-40
2023/02/07 12:51:46;;;;;;;5.37;4.97;;;36.40;1.00;;;;;;5093406;28;20516;-43
2023/02/07 12:54:18;;;;;;;6.43;5.93;;;36.80;1.00;;;;;;5092859;28;20436;-42
2023/02/07 12:57:09;;;;;;;6.00;5.50;;;36.50;1.00;;;;;;5095113;28;20414;-42